West Jefferson, NC (28694)

5:05 AM EDT on July 05, 2015 (GMT -0400)
APRSWXNET | | Change Station
CLOSE
Current Station
Personal Weather Station
Location: West Jefferson, NC
Elevation: 3297 ft
Nearby Weather Stations

Elev 3297 ft 36.36 °N, 81.51 °W | Updated 15 minutes ago

Overcast
Overcast
63 °F
Feels Like 63 °F
N
0
Wind Variable Wind from North
Gusts 0.0 mph

Today
High -- | Low -- °F
--% Chance of Precip.
Yesterday
High -- | Low -- °F
Precip. -- in
6:13 AM 8:47 PM
Waning Gibbous, 86% visible
Pressure 30.18 in
Visibility 5.0 miles
Clouds Scattered Clouds 100 ft
Mostly Cloudy 4500 ft
Overcast 6000 ft
Dew Point 61 °F
Humidity 92%
Rainfall in
Snow Depth Not available.
UV 0 out of 12
Pollen .50 out of 12
Air Quality Not available.
Flu Activity Not available.
METAR KGEV 050855Z AUTO 00000KT 5SM BR SCT001 BKN045 OVC060 17/17 A3018 RMK AO2 T01720172

More Conditions Fewer Conditions

Pressure 30.18 in
Visibility 5.0 miles
Clouds Scattered Clouds 100 ft
Mostly Cloudy 4500 ft
Overcast 6000 ft
Dew Point 61 °F
Humidity 92%
Rainfall in
Snow Depth Not available.
UV 0 out of 12
Pollen .50 out of 12
Air Quality Not available.
Flu Activity Not available.
METAR KGEV 050855Z AUTO 00000KT 5SM BR SCT001 BKN045 OVC060 17/17 A3018 RMK AO2 T01720172

More Conditions Fewer Conditions

10-Day Weather Forecast

×

Almanac

Astronomy

Jul. 05, 2015 Rise Set
Actual Time
Civil Twilight
Nautical Twilight
Astronomical Twilight
Moon
Length of Visible Light
Length of Day
Tomorrow will be .
, % of the Moon is Illuminated

Today's Extremes

State Highs State Lows

Community

WunderPhotos

Upload Photos

1,835,218 photos uploaded!

WunderBlogs® & News

Nearby

Air Quality

  Air Quality AQ Index Pollutant
Not available.

Snow Depth

Station Depth Elevation

Earthquake Activity

City Distance Mag. Time & Date
Minimum magnitude displayed is 2.5.

Coastal Water Temperatures

Place Temperature

Stations

Nearby Weather Stations

Station Location Temp. Windchill Dew Point Humidity Wind Precip. Elev Updated Type